Latest Weather Observations for Mackay Airport

IDQ60801

Issued at 5:02 pm EST Tuesday 4 August 2015 (issued every 30 minutes, with the page automatically refreshed every 10 minutes)

About weather observations | Map of weather stations | Latest weather observations for QLD | Other Formats
Station Details ID: 033045 Name: MACKAY AERO Lat: -21.17 Lon: 149.18 Height: 4.7 m
Data from the previous 72 hours. | See also: Recent months at Mackay Airport
Date/Time
EST
Temp
°C
App
Temp
°C
Dew
Point
Rel
Hum
%
Delta-T
°C
Wind Press
QNH
hPa
Press
MSL
hPa
Rain
since 9 am
mm
Dir
 
Spd
km/h
Gust
km/h
Spd
kts
Gust
kts
04/05:00pm 20.7 18.3 15.3 71 3.2 ESE 22 28 12 15 1015.1 1015.1 0.0
04/04:30pm 21.1 18.9 15.9 72 3.1 ESE 22 26 12 14 1014.9 1014.9 0.0
04/04:00pm 21.5 19.3 16.0 71 3.3 E 22 24 12 13 1014.8 1014.8 0.0
04/03:30pm 21.6 19.8 15.9 70 3.4 E 20 26 11 14 1014.8 1014.8 0.0
04/03:00pm 21.6 19.2 15.4 68 3.7 E 22 26 12 14 1014.9 1014.9 0.0
04/02:30pm 22.2 19.7 16.2 69 3.6 E 24 28 13 15 1015.1 1015.1 0.0
04/02:00pm 21.7 19.1 15.8 69 3.5 E 24 30 13 16 1015.7 1015.7 0.0
04/01:30pm 21.5 18.2 15.1 67 3.8 E 26 30 14 16 1016.0 1016.0 0.0
04/01:00pm 21.8 19.1 15.6 68 3.7 E 24 30 13 16 1016.4 1016.4 0.0
04/12:30pm 22.3 19.9 16.3 69 3.6 ESE 24 32 13 17 1017.0 1017.0 0.0
04/12:00pm 22.3 20.1 17.0 72 3.2 ESE 24 28 13 15 1017.5 1017.5 0.0
04/11:30am 22.0 19.8 16.9 73 3.1 ESE 24 30 13 16 1018.0 1018.0 0.0
04/11:00am 22.2 20.3 17.6 75 2.8 ESE 24 33 13 18 1018.3 1018.3 0.0
04/10:30am 22.7 22.0 18.3 76 2.8 E 19 24 10 13 1018.7 1018.7 0.0
04/10:00am 22.7 23.9 18.3 76 2.8 SE 9 15 5 8 1018.7 1018.7 0.0
04/09:57am 22.3 23.2 18.3 78 2.5 SSE 11 17 6 9 1018.8 1018.8 0.0
04/09:30am 21.3 22.4 18.1 82 2.0 SE 9 15 5 8 1018.8 1018.8 0.0
04/09:00am 19.2 20.6 17.7 91 0.9 SW 7 9 4 5 1018.8 1018.8 0.0
04/08:48am 18.6 19.9 17.6 94 0.6 SW 7 11 4 6 1018.6 1018.6 0.0
04/08:39am 18.1 19.2 17.1 94 0.6 SSW 7 9 4 5 1018.7 1018.7 0.0
04/08:30am 17.9 18.6 17.1 95 0.5 SW 9 13 5 7 1018.6 1018.6 0.0
04/08:10am 17.6 18.7 17.1 97 0.3 SW 7 9 4 5 1018.4 1018.4 0.0
04/08:00am 17.6 18.4 17.3 98 0.2 SW 9 13 5 7 1018.2 1018.2 0.0
04/07:48am 17.1 17.7 16.8 98 0.2 SW 9 15 5 8 1018.1 1018.1 0.0
04/07:42am 17.3 17.2 17.0 98 0.2 SW 13 15 7 8 1018.0 1018.0 0.0
04/07:30am 17.2 17.5 17.0 99 0.1 SSW 11 13 6 7 1017.9 1017.9 0.0
04/07:00am 15.9 15.3 15.7 99 0.1 SSW 13 15 7 8 1017.6 1017.6 0.0
04/06:30am 16.1 15.6 15.9 99 0.1 SW 13 15 7 8 1017.3 1017.3 0.0
04/06:00am 16.5 16.1 16.3 99 0.1 SSW 13 17 7 9 1017.1 1017.1 0.0
04/05:30am 16.4 16.8 16.2 99 0.1 WSW 9 11 5 6 1016.4 1016.4 0.0
04/05:00am 16.5 16.9 16.3 99 0.1 WSW 9 13 5 7 1016.1 1016.1 0.0
04/04:30am 16.2 16.5 16.0 99 0.1 WSW 9 13 5 7 1015.9 1015.9 0.0
04/04:06am 16.2 16.5 16.0 99 0.1 WSW 9 13 5 7 1015.9 1015.9 0.0
04/04:00am 16.2 16.5 16.0 99 0.1 WSW 9 13 5 7 1015.9 1015.9 0.0
04/03:55am 16.3 16.2 16.1 99 0.1 WSW 11 13 6 7 1015.9 1015.9 0.0
04/03:30am 16.5 17.3 16.3 99 0.1 ENE 7 11 4 6 1016.1 1016.1 0.0
04/03:00am 16.5 17.5 16.3 99 0.1 ENE 6 7 3 4 1016.1 1016.1 0.0
04/02:30am 16.1 16.4 15.9 99 0.1 ENE 9 11 5 6 1016.1 1016.1 0.0
04/02:00am 16.9 19.2 16.7 99 0.1 CALM 0 0 0 0 1016.4 1016.4 0.0
04/01:30am 16.2 16.8 15.9 98 0.2 ENE 7 9 4 5 1016.7 1016.7 0.0
04/01:07am 14.8 14.9 14.5 98 0.2 ENE 7 9 4 5 1017.1 1017.1 0.0
04/01:00am 14.9 14.7 14.6 98 0.2 ENE 9 11 5 6 1017.2 1017.2 0.0
04/12:53am 14.4 14.0 14.1 98 0.2 ENE 9 11 5 6 1017.3 1017.3 0.0
04/12:30am 14.2 13.7 13.9 98 0.2 ENE 9 11 5 6 1017.2 1017.2 0.0
04/12:26am 14.1 13.2 13.6 97 0.3 ENE 11 13 6 7 1017.2 1017.2 0.0
04/12:17am 14.0 13.0 13.5 97 0.3 ENE 11 13 6 7 1017.3 1017.3 0.0
04/12:15am 13.7 12.6 13.2 97 0.3 ENE 11 13 6 7 1017.3 1017.3 0.0
04/12:00am 14.4 13.9 13.9 97 0.3 ENE 9 9 5 5 1017.4 1017.4 0.0
 
Date/Time
EST
Temp
°C
App
Temp
°C
Dew
Point
Rel
Hum
%
Delta-T
°C
Wind Press
QNH
hPa
Press
MSL
hPa
Rain
since 9 am
mm
Dir
 
Spd
km/h
Gust
km/h
Spd
kts
Gust
kts
03/11:30pm 15.5 15.8 15.0 97 0.3 ENE 7 7 4 4 1017.5 1017.5 0.0
03/11:00pm 15.9 16.5 15.3 96 0.3 ENE 6 6 3 3 1017.6 1017.6 0.0
03/10:38pm 16.5 17.3 15.9 96 0.4 ENE 6 7 3 4 1017.8 1017.8 0.0
03/10:31pm 16.7 18.4 16.1 96 0.4 ENE 2 7 1 4 1017.8 1017.8 0.0
03/10:30pm 16.7 18.4 16.1 96 0.4 ENE 2 6 1 3 1017.8 1017.8 0.0
03/10:13pm 16.1 17.8 15.3 95 0.5 CALM 0 0 0 0 1017.9 1017.9 0.0
03/10:01pm 16.9 18.9 16.1 95 0.5 CALM 0 0 0 0 1017.9 1017.9 0.0
03/10:00pm 16.9 18.9 16.1 95 0.5 CALM 0 0 0 0 1017.9 1017.9 0.0
03/09:30pm 17.4 18.6 16.8 96 0.4 ENE 6 7 3 4 1018.0 1018.0 0.0
03/09:00pm 17.3 17.9 16.7 96 0.4 ENE 9 9 5 5 1018.1 1018.1 0.0
03/08:49pm 18.0 19.8 17.5 97 0.3 ENE 4 7 2 4 1018.0 1018.0 0.0
03/08:30pm 17.8 20.3 17.3 97 0.3 CALM 0 0 0 0 1018.0 1018.0 0.0
03/08:26pm 18.2 20.9 17.7 97 0.3 CALM 0 0 0 0 1017.9 1017.9 0.0
03/08:00pm 18.2 20.8 17.6 96 0.4 CALM 0 0 0 0 1017.7 1017.7 0.0
03/07:39pm 18.2 20.4 17.4 95 0.5 ENE 2 6 1 3 1017.6 1017.6 0.0
03/07:30pm 18.3 20.0 17.1 93 0.7 ENE 4 6 2 3 1017.6 1017.6 0.0
03/07:00pm 19.3 20.4 18.0 92 0.8 ENE 9 9 5 5 1017.1 1017.1 0.0
03/06:30pm 19.6 21.2 17.9 90 1.0 ENE 6 7 3 4 1017.2 1017.2 0.0
03/06:00pm 20.2 21.8 18.3 89 1.2 ENE 7 9 4 5 1016.9 1016.9 0.0
03/05:30pm 20.9 21.4 18.3 85 1.6 ENE 13 19 7 10 1016.7 1016.7 0.0
03/05:00pm 21.6 20.8 18.0 80 2.2 NE 19 20 10 11 1016.6 1016.6 0.0
03/04:30pm 22.1 21.1 17.9 77 2.6 NE 20 24 11 13 1016.6 1016.6 0.0
03/04:00pm 22.7 21.5 17.6 73 3.2 NE 20 24 11 13 1016.6 1016.6 0.0
03/03:30pm 23.0 21.9 17.2 70 3.6 NE 19 24 10 13 1016.5 1016.5 0.0
03/03:00pm 23.5 22.5 17.5 69 3.7 ENE 19 24 10 13 1016.6 1016.6 0.0
03/02:30pm 23.5 22.2 16.8 66 4.1 NE 19 24 10 13 1016.7 1016.7 0.0
03/02:00pm 23.6 22.4 17.1 67 4.0 ENE 19 24 10 13 1016.9 1016.9 0.0
03/01:30pm 23.7 22.9 17.0 66 4.1 ENE 17 22 9 12 1017.4 1017.4 0.0
03/01:00pm 24.0 23.0 17.5 67 4.0 ENE 19 22 10 12 1017.9 1017.9 0.0
03/12:30pm 23.3 22.4 16.8 67 4.0 ENE 17 20 9 11 1018.3 1018.3 0.0
03/12:00pm 23.5 22.8 17.3 68 3.8 ENE 17 20 9 11 1018.8 1018.8 0.0
03/11:30am 23.6 23.2 18.0 71 3.5 E 17 19 9 10 1019.1 1019.1 0.0
03/11:00am 23.5 23.0 17.9 71 3.5 E 17 20 9 11 1019.5 1019.5 0.0
03/10:30am 23.1 23.4 17.1 69 3.7 E 11 17 6 9 1019.9 1019.9 0.0
03/10:00am 23.0 24.1 17.0 69 3.7 SSE 7 13 4 7 1020.3 1020.3 0.0
03/09:30am 21.6 22.7 17.0 75 2.8 SSW 7 11 4 6 1020.6 1020.6 0.0
03/09:00am 21.0 22.2 18.2 84 1.7 WSW 9 15 5 8 1020.6 1020.6 0.0
03/08:30am 18.9 19.1 16.7 87 1.3 WSW 11 13 6 7 1020.4 1020.4 0.0
03/08:00am 17.7 18.1 16.2 91 0.9 WSW 9 11 5 6 1019.9 1019.9 0.0
03/07:30am 16.5 17.2 15.7 95 0.5 WSW 6 9 3 5 1019.8 1019.8 0.0
03/07:00am 15.2 15.4 14.6 96 0.3 W 7 9 4 5 1019.5 1019.5 0.0
03/06:30am 14.4 14.3 13.8 96 0.3 W 7 9 4 5 1019.3 1019.3 0.0
03/06:17am 14.1 13.4 13.3 95 0.4 W 9 9 5 5 1019.3 1019.3 0.0
03/06:00am 14.7 14.8 13.9 95 0.4 W 6 9 3 5 1019.3 1019.3 0.0
03/05:58am 14.9 15.1 14.1 95 0.5 W 6 7 3 4 1019.3 1019.3 0.0
03/05:55am 14.9 15.1 14.1 95 0.5 W 6 7 3 4 1019.3 1019.3 0.0
03/05:30am 15.6 15.8 14.8 95 0.5 W 7 9 4 5 1019.2 1019.2 0.0
03/05:29am 15.6 15.8 14.8 95 0.5 W 7 9 4 5 1019.2 1019.2 0.0
03/05:00am 16.1 16.1 15.1 94 0.6 WSW 9 11 5 6 1019.0 1019.0 0.0
03/04:30am 17.0 17.4 16.2 95 0.5 WSW 9 13 5 7 1018.9 1018.9 0.0
03/04:00am 16.8 17.1 16.0 95 0.5 WSW 9 11 5 6 1018.8 1018.8 0.0
03/03:30am 16.6 16.9 16.0 96 0.4 WSW 9 11 5 6 1018.6 1018.6 0.0
03/03:00am 16.3 16.9 15.8 97 0.3 WSW 7 11 4 6 1018.9 1018.9 0.0
03/02:30am 15.8 16.3 15.5 98 0.2 S 7 9 4 5 1019.2 1019.2 0.0
03/02:00am 14.8 14.8 14.3 97 0.3 S 7 9 4 5 1019.4 1019.4 0.0
03/01:40am 14.1 13.5 13.5 96 0.3 S 9 9 5 5 1019.5 1019.5 0.0
03/01:30am 13.9 13.6 13.3 96 0.3 S 7 9 4 5 1019.6 1019.6 0.0
03/01:00am 14.6 14.7 13.8 95 0.4 S 6 7 3 4 1019.7 1019.7 0.0
03/12:34am 15.5 15.7 14.7 95 0.5 S 7 9 4 5 1020.0 1020.0 0.0
03/12:30am 15.6 15.4 14.8 95 0.5 S 9 11 5 6 1020.1 1020.1 0.0
03/12:00am 16.4 17.0 15.8 96 0.4 S 7 9 4 5 1020.3 1020.3 0.0
 
Date/Time
EST
Temp
°C
App
Temp
°C
Dew
Point
Rel
Hum
%
Delta-T
°C
Wind Press
QNH
hPa
Press
MSL
hPa
Rain
since 9 am
mm
Dir
 
Spd
km/h
Gust
km/h
Spd
kts
Gust
kts
02/11:30pm 15.3 15.5 14.8 97 0.3 S 7 9 4 5 1020.4 1020.4 0.0
02/11:25pm 15.1 15.3 14.6 97 0.3 S 7 7 4 4 1020.4 1020.4 0.0
02/11:22pm 15.0 15.1 14.5 97 0.3 S 7 7 4 4 1020.4 1020.4 0.0
02/11:08pm 15.0 15.3 14.4 96 0.3 S 6 7 3 4 1020.5 1020.5 0.0
02/11:00pm 15.1 15.2 14.5 96 0.3 S 7 7 4 4 1020.5 1020.5 0.0
02/10:30pm 14.8 14.7 14.0 95 0.4 S 7 9 4 5 1020.7 1020.7 0.0
02/10:00pm 15.3 15.4 14.5 95 0.5 S 7 9 4 5 1020.7 1020.7 0.0
02/09:30pm 16.3 16.9 15.7 96 0.4 S 7 9 4 5 1020.6 1020.6 0.0
02/09:00pm 16.2 16.3 15.4 95 0.5 S 9 9 5 5 1020.6 1020.6 0.0
02/08:30pm 16.6 17.1 15.6 94 0.6 S 7 9 4 5 1020.3 1020.3 0.0
02/08:00pm 17.2 17.9 16.1 93 0.6 S 7 9 4 5 1020.3 1020.3 0.0
02/07:30pm 18.1 18.5 16.4 90 1.0 SSE 9 11 5 6 1020.1 1020.1 0.0
02/07:00pm 19.1 19.6 17.4 90 1.0 SE 11 15 6 8 1020.1 1020.1 0.0
02/06:30pm 19.4 19.4 17.2 87 1.3 ESE 13 15 7 8 1019.8 1019.8 0.0
02/06:00pm 20.0 19.7 17.4 85 1.6 ESE 15 17 8 9 1019.6 1019.6 0.0
02/05:30pm 20.5 19.7 17.1 81 2.1 ESE 17 22 9 12 1019.6 1019.6 0.0
02/05:00pm 21.3 19.6 17.3 78 2.4 E 22 26 12 14 1019.4 1019.4 0.0
02/04:30pm 21.8 20.1 17.2 75 2.8 E 22 26 12 14 1019.3 1019.3 0.0
02/04:00pm 22.3 20.2 17.2 73 3.1 E 24 28 13 15 1019.4 1019.4 0.0
02/03:30pm 22.8 21.2 17.5 72 3.3 E 22 26 12 14 1019.3 1019.3 0.0
02/03:00pm 23.7 22.5 17.4 68 3.9 ESE 20 24 11 13 1019.5 1019.5 0.0
02/02:30pm 23.1 21.6 17.6 71 3.4 ESE 22 26 12 14 1019.7 1019.7 0.0
02/02:00pm 23.4 22.2 17.6 70 3.6 ESE 20 24 11 13 1019.9 1019.9 0.0
02/01:30pm 23.5 21.5 17.3 68 3.8 ESE 24 30 13 16 1020.4 1020.4 0.0
02/01:00pm 23.5 22.2 17.3 68 3.8 ESE 20 26 11 14 1020.9 1020.9 0.0
02/12:30pm 23.7 21.9 17.0 66 4.1 SE 22 26 12 14 1021.3 1021.3 0.0
02/12:00pm 23.1 21.1 16.4 66 4.1 ESE 22 26 12 14 1021.5 1021.5 0.0
02/11:30am 22.9 20.8 16.2 66 4.1 ESE 22 28 12 15 1021.9 1021.9 0.0
02/11:00am 23.7 22.4 17.2 67 4.0 ESE 20 24 11 13 1022.2 1022.2 0.0
02/10:30am 22.4 20.9 16.4 69 3.6 ESE 19 22 10 12 1022.5 1022.5 0.0
02/10:00am 22.6 22.7 17.5 73 3.1 SE 13 20 7 11 1022.7 1022.7 0.0
02/09:30am 21.5 21.8 16.9 75 2.8 SSE 11 17 6 9 1022.8 1022.8 0.0
02/09:00am 20.0 20.5 16.6 81 2.0 SSW 9 13 5 7 1022.5 1022.5 0.0
02/08:30am 17.7 17.5 15.7 88 1.2 SW 11 13 6 7 1022.3 1022.3 0.0
02/08:00am 15.9 15.7 14.8 93 0.6 WSW 9 11 5 6 1022.0 1022.0 0.0
02/07:30am 13.8 13.4 13.0 95 0.4 WSW 7 9 4 5 1022.0 1022.0 0.0
02/07:00am 12.8 11.8 12.3 97 0.3 WSW 9 11 5 6 1021.6 1021.6 0.0
02/06:30am 11.6 10.5 10.8 95 0.4 WSW 7 7 4 4 1021.3 1021.3 0.0
02/06:00am 12.1 11.2 11.5 96 0.3 WSW 7 9 4 5 1021.1 1021.1 0.0
02/05:30am 12.3 11.7 11.7 96 0.3 WSW 6 9 3 5 1020.8 1020.8 0.0
02/05:00am 12.1 11.2 11.3 95 0.4 SW 7 9 4 5 1020.8 1020.8 0.0
02/04:30am 12.6 11.8 11.8 95 0.4 SW 7 9 4 5 1020.7 1020.7 0.0
02/04:00am 12.7 12.0 11.4 92 0.7 SW 6 7 3 4 1020.7 1020.7 0.0
02/03:30am 14.0 13.6 13.1 94 0.5 SW 7 9 4 5 1020.8 1020.8 0.0
02/03:00am 14.1 13.9 13.5 96 0.3 SW 7 7 4 4 1021.0 1021.0 0.0
02/02:30am 13.0 12.0 12.2 95 0.4 SW 9 11 5 6 1020.9 1020.9 0.0
02/02:00am 12.9 12.2 12.0 94 0.5 SW 7 11 4 6 1020.9 1020.9 0.0
02/01:30am 12.8 11.7 11.9 94 0.5 SW 9 9 5 5 1021.1 1021.1 0.0
02/01:00am 13.1 12.1 12.2 94 0.5 SSW 9 11 5 6 1021.3 1021.3 0.0
02/12:30am 13.9 13.1 12.8 93 0.6 SSW 9 11 5 6 1021.5 1021.5 0.0
02/12:00am 13.1 12.0 11.8 92 0.7 SSW 9 9 5 5 1021.8 1021.8 0.0
 
Date/Time
EST
Temp
°C
App
Temp
°C
Dew
Point
Rel
Hum
%
Delta-T
°C
Wind Press
QNH
hPa
Press
MSL
hPa
Rain
since 9 am
mm
Dir
 
Spd
km/h
Gust
km/h
Spd
kts
Gust
kts
01/11:30pm 14.0 13.2 12.9 93 0.6 SSW 9 9 5 5 1021.9 1021.9 0.0
01/11:00pm 14.1 13.7 13.0 93 0.6 SSW 7 9 4 5 1022.0 1022.0 0.0
01/10:30pm 13.5 12.4 12.1 91 0.8 SSW 9 11 5 6 1021.8 1021.8 0.0
01/10:00pm 13.9 12.6 12.6 92 0.7 SSW 11 13 6 7 1021.6 1021.6 0.0
01/09:30pm 14.1 12.9 12.7 91 0.8 SSW 11 13 6 7 1021.5 1021.5 0.0
01/09:00pm 14.9 14.2 13.1 89 1.0 SW 9 11 5 6 1021.4 1021.4 0.0
01/08:30pm 15.5 14.4 13.2 86 1.3 SSW 11 13 6 7 1021.4 1021.4 0.0
01/08:00pm 16.0 15.2 12.9 82 1.7 S 9 13 5 7 1021.1 1021.1 0.0
01/07:30pm 18.9 18.0 15.8 82 1.8 ESE 15 19 8 10 1020.8 1020.8 0.0
01/07:00pm 18.8 17.5 15.7 82 1.8 SE 17 19 9 10 1020.4 1020.4 0.0
01/06:30pm 19.3 17.5 15.6 79 2.2 ESE 19 22 10 12 1020.2 1020.2 0.0
01/06:00pm 19.7 17.2 15.1 75 2.7 ESE 22 26 12 14 1019.8 1019.8 0.0
01/05:30pm 20.4 17.8 15.0 71 3.2 ESE 22 28 12 15 1019.7 1019.7 0.0

Other Formats:

Comma delimited format used in spreadsheet applications
http://www.bom.gov.au/fwo/IDQ60801/IDQ60801.95367.axf

JavaScript Object Notation format (JSON) in row-major order
http://www.bom.gov.au/fwo/IDQ60801/IDQ60801.95367.json